YVV weather

Wiarton Airport
Wiarton, Ontario, Canada

Public forecast

Using degrees Celsius for public forecast. Weather courtesy of forecast.io.

Current aviation weather report (METAR) for Wiarton Airport

Retrieved 2019/11/21 13:00 UTC (43 minutes ago):

CYVV 211300Z 18008KT 10SM OVC020 04/01 A3005 RMK SC8 SLP184

Aviation forecast (TAF) for Wiarton Airport

Retrieved 2019/11/21 14:00 UTC (0 seconds ago):

TAF CYVV 211340Z 2114/2124 18010KT P6SM OVC020 TEMPO 2114/2118 SCT020 OVC090 BECMG 2114/2116 18015G25KT FM211800 18015G25KT P6SM -RA OVC030 TEMPO 2118/2122 3SM -RA BR OVC020 FM212200 18012G22KT 3SM -RA BR SCT008 OVC015 RMK NXT FCST BY 212000Z